sensor_id;sensor_type;location;lat;lon;timestamp;temperature;humidity
5466;DHT22;2755;50.728;7.108;2022-09-12T00:01:59;13.00;99.90
5466;DHT22;2755;50.728;7.108;2022-09-12T00:04:24;13.00;99.90
5466;DHT22;2755;50.728;7.108;2022-09-12T00:06:51;13.10;99.90
5466;DHT22;2755;50.728;7.108;2022-09-12T00:11:44;13.20;99.90
5466;DHT22;2755;50.728;7.108;2022-09-12T00:14:14;13.00;99.90
5466;DHT22;2755;50.728;7.108;2022-09-12T00:16:40;12.90;99.90
5466;DHT22;2755;50.728;7.108;2022-09-12T00:19:06;12.90;99.90
5466;DHT22;2755;50.728;7.108;2022-09-12T00:21:34;12.60;99.90
5466;DHT22;2755;50.728;7.108;2022-09-12T00:24:00;13.00;99.90
5466;DHT22;2755;50.728;7.108;2022-09-12T00:26:25;13.20;99.90
5466;DHT22;2755;50.728;7.108;2022-09-12T00:31:21;12.60;99.90
5466;DHT22;2755;50.728;7.108;2022-09-12T00:33:48;12.60;99.90
5466;DHT22;2755;50.728;7.108;2022-09-12T00:36:20;12.80;99.90
5466;DHT22;2755;50.728;7.108;2022-09-12T00:38:47;12.80;99.90
5466;DHT22;2755;50.728;7.108;2022-09-12T00:41:20;12.60;99.90
5466;DHT22;2755;50.728;7.108;2022-09-12T00:43:51;12.60;99.90
5466;DHT22;2755;50.728;7.108;2022-09-12T00:46:37;12.50;99.90
5466;DHT22;2755;50.728;7.108;2022-09-12T00:56:59;13.10;99.90
5466;DHT22;2755;50.728;7.108;2022-09-12T00:59:33;12.20;99.90
5466;DHT22;2755;50.728;7.108;2022-09-12T01:01:59;12.00;99.90
5466;DHT22;2755;50.728;7.108;2022-09-12T01:04:26;12.20;99.90
5466;DHT22;2755;50.728;7.108;2022-09-12T01:06:53;11.90;99.90
5466;DHT22;2755;50.728;7.108;2022-09-12T01:09:21;12.40;99.90
5466;DHT22;2755;50.728;7.108;2022-09-12T01:11:48;12.40;99.90
5466;DHT22;2755;50.728;7.108;2022-09-12T01:14:15;12.50;99.90
5466;DHT22;2755;50.728;7.108;2022-09-12T01:16:42;12.60;99.90
5466;DHT22;2755;50.728;7.108;2022-09-12T01:19:30;12.10;99.90
5466;DHT22;2755;50.728;7.108;2022-09-12T01:39:01;12.10;99.90
5466;DHT22;2755;50.728;7.108;2022-09-12T01:41:39;12.50;99.90
5466;DHT22;2755;50.728;7.108;2022-09-12T01:44:32;12.10;99.90
5466;DHT22;2755;50.728;7.108;2022-09-12T01:47:09;12.10;99.90
5466;DHT22;2755;50.728;7.108;2022-09-12T01:49:59;12.40;99.90
5466;DHT22;2755;50.728;7.108;2022-09-12T01:52:32;12.00;99.90
5466;DHT22;2755;50.728;7.108;2022-09-12T01:55:19;11.80;99.90
5466;DHT22;2755;50.728;7.108;2022-09-12T01:58:11;11.90;99.90
5466;DHT22;2755;50.728;7.108;2022-09-12T02:01:05;12.10;99.90
5466;DHT22;2755;50.728;7.108;2022-09-12T02:03:46;12.10;99.90
5466;DHT22;2755;50.728;7.108;2022-09-12T02:06:30;12.20;99.90
5466;DHT22;2755;50.728;7.108;2022-09-12T02:09:02;12.20;99.90
5466;DHT22;2755;50.728;7.108;2022-09-12T02:14:10;11.90;99.90
5466;DHT22;2755;50.728;7.108;2022-09-12T02:16:43;12.30;99.90
5466;DHT22;2755;50.728;7.108;2022-09-12T02:19:23;11.70;99.90
5466;DHT22;2755;50.728;7.108;2022-09-12T02:21:57;12.00;99.90
5466;DHT22;2755;50.728;7.108;2022-09-12T02:24:36;11.40;99.90
5466;DHT22;2755;50.728;7.108;2022-09-12T02:27:14;11.90;99.90
5466;DHT22;2755;50.728;7.108;2022-09-12T02:29:40;12.20;99.90
5466;DHT22;2755;50.728;7.108;2022-09-12T02:32:23;11.70;99.90
5466;DHT22;2755;50.728;7.108;2022-09-12T02:35:02;12.10;99.90
5466;DHT22;2755;50.728;7.108;2022-09-12T02:37:42;12.30;99.90
5466;DHT22;2755;50.728;7.108;2022-09-12T02:40:08;11.60;99.90
5466;DHT22;2755;50.728;7.108;2022-09-12T02:42:35;12.10;99.90
5466;DHT22;2755;50.728;7.108;2022-09-12T02:45:01;11.40;99.90
5466;DHT22;2755;50.728;7.108;2022-09-12T02:47:35;12.30;99.90
5466;DHT22;2755;50.728;7.108;2022-09-12T02:50:02;12.40;99.90
5466;DHT22;2755;50.728;7.108;2022-09-12T02:52:30;12.10;99.90
5466;DHT22;2755;50.728;7.108;2022-09-12T02:54:57;12.40;99.90
5466;DHT22;2755;50.728;7.108;2022-09-12T02:57:23;12.90;99.90
5466;DHT22;2755;50.728;7.108;2022-09-12T02:59:52;12.20;99.90
5466;DHT22;2755;50.728;7.108;2022-09-12T03:05:17;12.00;99.90
5466;DHT22;2755;50.728;7.108;2022-09-12T03:08:03;12.50;99.90
5466;DHT22;2755;50.728;7.108;2022-09-12T03:11:19;11.90;99.90
5466;DHT22;2755;50.728;7.108;2022-09-12T03:16:41;12.20;99.90
5466;DHT22;2755;50.728;7.108;2022-09-12T03:21:45;12.10;99.90
5466;DHT22;2755;50.728;7.108;2022-09-12T03:24:20;12.00;99.90
5466;DHT22;2755;50.728;7.108;2022-09-12T03:26:57;12.20;99.90
5466;DHT22;2755;50.728;7.108;2022-09-12T03:29:26;11.70;99.90
5466;DHT22;2755;50.728;7.108;2022-09-12T03:31:54;12.00;99.90
5466;DHT22;2755;50.728;7.108;2022-09-12T03:34:21;12.10;99.90
5466;DHT22;2755;50.728;7.108;2022-09-12T03:36:48;12.10;99.90
5466;DHT22;2755;50.728;7.108;2022-09-12T03:39:15;11.90;99.90
5466;DHT22;2755;50.728;7.108;2022-09-12T03:41:40;12.00;99.90
5466;DHT22;2755;50.728;7.108;2022-09-12T03:44:06;12.00;99.90
5466;DHT22;2755;50.728;7.108;2022-09-12T03:46:32;12.50;99.90
5466;DHT22;2755;50.728;7.108;2022-09-12T03:48:57;12.20;99.90
5466;DHT22;2755;50.728;7.108;2022-09-12T03:51:23;12.70;99.90
5466;DHT22;2755;50.728;7.108;2022-09-12T03:53:49;12.00;99.90
5466;DHT22;2755;50.728;7.108;2022-09-12T03:56:14;12.40;99.90
5466;DHT22;2755;50.728;7.108;2022-09-12T03:58:40;12.00;99.90
5466;DHT22;2755;50.728;7.108;2022-09-12T04:01:13;12.30;99.90
5466;DHT22;2755;50.728;7.108;2022-09-12T04:03:43;12.00;99.90
5466;DHT22;2755;50.728;7.108;2022-09-12T04:06:11;12.00;99.90
5466;DHT22;2755;50.728;7.108;2022-09-12T04:11:06;11.80;99.90
5466;DHT22;2755;50.728;7.108;2022-09-12T04:13:33;13.70;99.90
5466;DHT22;2755;50.728;7.108;2022-09-12T04:15:59;11.80;99.90
5466;DHT22;2755;50.728;7.108;2022-09-12T04:18:25;11.70;99.90
5466;DHT22;2755;50.728;7.108;2022-09-12T04:23:17;11.90;99.90
5466;DHT22;2755;50.728;7.108;2022-09-12T04:25:42;12.00;99.90
5466;DHT22;2755;50.728;7.108;2022-09-12T04:28:08;11.70;99.90
5466;DHT22;2755;50.728;7.108;2022-09-12T04:30:33;12.30;99.90
5466;DHT22;2755;50.728;7.108;2022-09-12T04:32:59;12.30;99.90
5466;DHT22;2755;50.728;7.108;2022-09-12T04:35:25;12.20;99.90
5466;DHT22;2755;50.728;7.108;2022-09-12T04:37:51;11.10;99.90
5466;DHT22;2755;50.728;7.108;2022-09-12T04:40:17;11.80;99.90
5466;DHT22;2755;50.728;7.108;2022-09-12T04:42:43;11.70;99.90
5466;DHT22;2755;50.728;7.108;2022-09-12T04:45:09;11.80;99.90
5466;DHT22;2755;50.728;7.108;2022-09-12T04:47:35;11.70;99.90
5466;DHT22;2755;50.728;7.108;2022-09-12T04:50:00;11.90;99.90
5466;DHT22;2755;50.728;7.108;2022-09-12T04:52:26;12.00;99.90
5466;DHT22;2755;50.728;7.108;2022-09-12T04:57:18;11.50;99.90
5466;DHT22;2755;50.728;7.108;2022-09-12T05:02:09;12.20;99.90
5466;DHT22;2755;50.728;7.108;2022-09-12T05:04:35;12.20;99.90
5466;DHT22;2755;50.728;7.108;2022-09-12T05:07:00;12.20;99.90
5466;DHT22;2755;50.728;7.108;2022-09-12T05:09:26;12.20;99.90
5466;DHT22;2755;50.728;7.108;2022-09-12T05:11:52;12.60;99.90
5466;DHT22;2755;50.728;7.108;2022-09-12T05:14:18;12.20;99.90
5466;DHT22;2755;50.728;7.108;2022-09-12T05:16:43;12.30;99.90
5466;DHT22;2755;50.728;7.108;2022-09-12T05:19:10;13.00;99.90
5466;DHT22;2755;50.728;7.108;2022-09-12T05:21:36;12.70;99.90
5466;DHT22;2755;50.728;7.108;2022-09-12T05:24:02;11.90;99.90
5466;DHT22;2755;50.728;7.108;2022-09-12T05:26:30;12.60;99.90
5466;DHT22;2755;50.728;7.108;2022-09-12T05:28:56;13.10;99.90
5466;DHT22;2755;50.728;7.108;2022-09-12T05:31:25;12.60;99.90
5466;DHT22;2755;50.728;7.108;2022-09-12T05:33:53;13.00;99.90
5466;DHT22;2755;50.728;7.108;2022-09-12T05:36:21;12.90;99.90
5466;DHT22;2755;50.728;7.108;2022-09-12T05:38:48;12.90;99.90
5466;DHT22;2755;50.728;7.108;2022-09-12T05:41:19;12.60;99.90
5466;DHT22;2755;50.728;7.108;2022-09-12T05:43:45;13.00;99.90
5466;DHT22;2755;50.728;7.108;2022-09-12T05:46:13;13.00;99.90
5466;DHT22;2755;50.728;7.108;2022-09-12T05:48:41;13.00;99.90
5466;DHT22;2755;50.728;7.108;2022-09-12T05:51:14;12.90;99.90
5466;DHT22;2755;50.728;7.108;2022-09-12T05:53:48;13.20;99.90
5466;DHT22;2755;50.728;7.108;2022-09-12T05:56:25;14.00;99.90
5466;DHT22;2755;50.728;7.108;2022-09-12T05:58:54;13.40;99.90
5466;DHT22;2755;50.728;7.108;2022-09-12T06:01:20;13.70;99.90
5466;DHT22;2755;50.728;7.108;2022-09-12T06:03:48;14.10;99.90
5466;DHT22;2755;50.728;7.108;2022-09-12T06:08:45;14.30;99.90
5466;DHT22;2755;50.728;7.108;2022-09-12T06:11:13;14.40;99.90
5466;DHT22;2755;50.728;7.108;2022-09-12T06:13:40;14.30;99.90
5466;DHT22;2755;50.728;7.108;2022-09-12T06:16:08;15.00;99.90
5466;DHT22;2755;50.728;7.108;2022-09-12T06:21:05;15.40;99.90
5466;DHT22;2755;50.728;7.108;2022-09-12T06:23:31;15.60;99.90
5466;DHT22;2755;50.728;7.108;2022-09-12T06:25:57;15.50;99.90
5466;DHT22;2755;50.728;7.108;2022-09-12T06:28:23;15.80;99.90
5466;DHT22;2755;50.728;7.108;2022-09-12T06:30:49;16.00;99.90
5466;DHT22;2755;50.728;7.108;2022-09-12T06:35:41;15.50;99.90
5466;DHT22;2755;50.728;7.108;2022-09-12T06:38:07;15.90;99.90
5466;DHT22;2755;50.728;7.108;2022-09-12T06:40:34;16.00;99.90
5466;DHT22;2755;50.728;7.108;2022-09-12T06:43:00;16.40;99.90
5466;DHT22;2755;50.728;7.108;2022-09-12T06:45:25;16.50;99.90
5466;DHT22;2755;50.728;7.108;2022-09-12T06:47:52;16.80;99.90
5466;DHT22;2755;50.728;7.108;2022-09-12T06:50:17;16.80;99.90
5466;DHT22;2755;50.728;7.108;2022-09-12T06:52:43;16.40;99.90
5466;DHT22;2755;50.728;7.108;2022-09-12T06:55:09;16.80;99.90
5466;DHT22;2755;50.728;7.108;2022-09-12T07:00:06;17.20;99.90
5466;DHT22;2755;50.728;7.108;2022-09-12T07:02:32;16.40;99.90
5466;DHT22;2755;50.728;7.108;2022-09-12T07:04:58;17.30;99.90
5466;DHT22;2755;50.728;7.108;2022-09-12T07:09:49;16.70;99.90
5466;DHT22;2755;50.728;7.108;2022-09-12T07:12:15;17.70;99.90
5466;DHT22;2755;50.728;7.108;2022-09-12T07:17:06;17.90;99.90
5466;DHT22;2755;50.728;7.108;2022-09-12T07:19:33;18.00;99.90
5466;DHT22;2755;50.728;7.108;2022-09-12T07:21:59;18.30;99.90
5466;DHT22;2755;50.728;7.108;2022-09-12T07:24:25;18.70;99.90
5466;DHT22;2755;50.728;7.108;2022-09-12T07:29:16;19.10;99.90
5466;DHT22;2755;50.728;7.108;2022-09-12T07:31:42;19.30;99.90
5466;DHT22;2755;50.728;7.108;2022-09-12T07:34:08;19.30;99.90
5466;DHT22;2755;50.728;7.108;2022-09-12T07:39:00;19.50;99.90
5466;DHT22;2755;50.728;7.108;2022-09-12T07:41:30;19.70;99.90
5466;DHT22;2755;50.728;7.108;2022-09-12T07:43:59;19.40;99.90
5466;DHT22;2755;50.728;7.108;2022-09-12T07:46:25;19.40;99.90
5466;DHT22;2755;50.728;7.108;2022-09-12T07:48:53;19.50;99.90
5466;DHT22;2755;50.728;7.108;2022-09-12T07:51:19;19.50;99.90
5466;DHT22;2755;50.728;7.108;2022-09-12T07:56:11;19.60;99.90
5466;DHT22;2755;50.728;7.108;2022-09-12T07:58:39;20.00;99.90
5466;DHT22;2755;50.728;7.108;2022-09-12T08:01:08;20.60;99.90
5466;DHT22;2755;50.728;7.108;2022-09-12T08:03:37;20.50;99.90
5466;DHT22;2755;50.728;7.108;2022-09-12T08:06:09;20.60;99.90
5466;DHT22;2755;50.728;7.108;2022-09-12T08:08:36;20.80;99.90
5466;DHT22;2755;50.728;7.108;2022-09-12T08:11:08;21.20;99.90
5466;DHT22;2755;50.728;7.108;2022-09-12T08:13:36;21.30;99.90
5466;DHT22;2755;50.728;7.108;2022-09-12T08:16:05;21.40;99.90
5466;DHT22;2755;50.728;7.108;2022-09-12T08:18:31;20.90;99.90
5466;DHT22;2755;50.728;7.108;2022-09-12T08:21:02;22.40;99.90
5466;DHT22;2755;50.728;7.108;2022-09-12T08:23:28;22.80;99.90
5466;DHT22;2755;50.728;7.108;2022-09-12T08:25:58;22.40;99.90
5466;DHT22;2755;50.728;7.108;2022-09-12T08:28:26;22.00;99.90
5466;DHT22;2755;50.728;7.108;2022-09-12T08:30:52;23.00;99.90
5466;DHT22;2755;50.728;7.108;2022-09-12T08:33:19;23.00;99.90
5466;DHT22;2755;50.728;7.108;2022-09-12T08:35:45;22.70;99.90
5466;DHT22;2755;50.728;7.108;2022-09-12T08:38:10;22.90;99.90
5466;DHT22;2755;50.728;7.108;2022-09-12T08:40:53;22.90;99.90
5466;DHT22;2755;50.728;7.108;2022-09-12T08:43:45;23.20;99.90
5466;DHT22;2755;50.728;7.108;2022-09-12T08:46:27;23.30;99.40
5466;DHT22;2755;50.728;7.108;2022-09-12T08:48:57;23.20;99.90
5466;DHT22;2755;50.728;7.108;2022-09-12T08:51:26;23.30;99.90
5466;DHT22;2755;50.728;7.108;2022-09-12T08:53:54;23.70;98.20
5466;DHT22;2755;50.728;7.108;2022-09-12T08:56:21;23.60;99.80
5466;DHT22;2755;50.728;7.108;2022-09-12T08:58:47;24.00;99.30
5466;DHT22;2755;50.728;7.108;2022-09-12T09:04:20;25.00;98.20
5466;DHT22;2755;50.728;7.108;2022-09-12T09:17:43;23.90;98.10
5466;DHT22;2755;50.728;7.108;2022-09-12T09:20:14;23.80;99.10
5466;DHT22;2755;50.728;7.108;2022-09-12T09:25:23;23.70;98.80
5466;DHT22;2755;50.728;7.108;2022-09-12T09:28:06;24.70;97.90
5466;DHT22;2755;50.728;7.108;2022-09-12T09:33:03;24.90;97.30
5466;DHT22;2755;50.728;7.108;2022-09-12T09:35:43;26.20;96.20
5466;DHT22;2755;50.728;7.108;2022-09-12T09:43:32;26.00;93.90
5466;DHT22;2755;50.728;7.108;2022-09-12T09:45:57;26.30;92.30
5466;DHT22;2755;50.728;7.108;2022-09-12T09:48:26;26.40;90.40
5466;DHT22;2755;50.728;7.108;2022-09-12T09:53:42;26.40;90.20
5466;DHT22;2755;50.728;7.108;2022-09-12T09:58:55;26.40;90.30
5466;DHT22;2755;50.728;7.108;2022-09-12T10:01:29;26.70;89.20
5466;DHT22;2755;50.728;7.108;2022-09-12T10:03:55;27.10;88.50
5466;DHT22;2755;50.728;7.108;2022-09-12T10:06:33;26.70;85.40
5466;DHT22;2755;50.728;7.108;2022-09-12T10:09:46;26.90;86.40
5466;DHT22;2755;50.728;7.108;2022-09-12T10:11:54;26.70;84.00
5466;DHT22;2755;50.728;7.108;2022-09-12T10:14:30;26.70;84.90
5466;DHT22;2755;50.728;7.108;2022-09-12T10:16:56;27.00;82.50
5466;DHT22;2755;50.728;7.108;2022-09-12T10:19:34;26.50;80.80
5466;DHT22;2755;50.728;7.108;2022-09-12T10:27:23;27.40;79.00
5466;DHT22;2755;50.728;7.108;2022-09-12T10:29:53;27.40;78.60
5466;DHT22;2755;50.728;7.108;2022-09-12T10:32:32;27.40;78.80
5466;DHT22;2755;50.728;7.108;2022-09-12T10:35:03;27.40;77.40
5466;DHT22;2755;50.728;7.108;2022-09-12T10:37:35;27.60;75.60
5466;DHT22;2755;50.728;7.108;2022-09-12T10:40:03;27.50;73.50
5466;DHT22;2755;50.728;7.108;2022-09-12T10:42:46;27.50;77.50
5466;DHT22;2755;50.728;7.108;2022-09-12T10:45:33;27.60;74.20
5466;DHT22;2755;50.728;7.108;2022-09-12T10:48:02;27.90;75.50
5466;DHT22;2755;50.728;7.108;2022-09-12T10:50:46;27.90;73.50
5466;DHT22;2755;50.728;7.108;2022-09-12T11:04:08;26.90;69.80
5466;DHT22;2755;50.728;7.108;2022-09-12T11:09:43;28.40;69.40
5466;DHT22;2755;50.728;7.108;2022-09-12T11:17:59;29.10;65.70
5466;DHT22;2755;50.728;7.108;2022-09-12T11:25:46;29.30;64.50
5466;DHT22;2755;50.728;7.108;2022-09-12T11:31:23;29.10;63.50
5466;DHT22;2755;50.728;7.108;2022-09-12T11:33:58;29.50;68.80
5466;DHT22;2755;50.728;7.108;2022-09-12T11:37:02;29.10;62.50
5466;DHT22;2755;50.728;7.108;2022-09-12T11:39:39;29.70;67.00
5466;DHT22;2755;50.728;7.108;2022-09-12T11:42:20;28.50;62.60
5466;DHT22;2755;50.728;7.108;2022-09-12T11:45:03;28.70;62.60
5466;DHT22;2755;50.728;7.108;2022-09-12T11:47:33;28.40;61.40
5466;DHT22;2755;50.728;7.108;2022-09-12T11:50:03;28.30;61.70
5466;DHT22;2755;50.728;7.108;2022-09-12T11:52:36;29.40;62.60
5466;DHT22;2755;50.728;7.108;2022-09-12T11:55:10;28.50;59.50
5466;DHT22;2755;50.728;7.108;2022-09-12T11:57:51;28.40;62.50
5466;DHT22;2755;50.728;7.108;2022-09-12T12:03:40;27.80;59.70
5466;DHT22;2755;50.728;7.108;2022-09-12T12:06:15;27.50;59.60
5466;DHT22;2755;50.728;7.108;2022-09-12T12:08:44;27.80;59.80
5466;DHT22;2755;50.728;7.108;2022-09-12T12:11:13;27.90;60.10
5466;DHT22;2755;50.728;7.108;2022-09-12T12:13:48;27.40;60.10
5466;DHT22;2755;50.728;7.108;2022-09-12T12:18:55;27.60;61.60
5466;DHT22;2755;50.728;7.108;2022-09-12T12:29:42;27.60;56.50
5466;DHT22;2755;50.728;7.108;2022-09-12T12:47:28;26.30;68.10
5466;DHT22;2755;50.728;7.108;2022-09-12T12:50:19;26.00;65.10
5466;DHT22;2755;50.728;7.108;2022-09-12T12:52:51;25.50;68.50
5466;DHT22;2755;50.728;7.108;2022-09-12T12:55:27;25.60;67.60
5466;DHT22;2755;50.728;7.108;2022-09-12T12:57:56;26.40;75.10
5466;DHT22;2755;50.728;7.108;2022-09-12T13:02:54;25.50;72.20
5466;DHT22;2755;50.728;7.108;2022-09-12T13:05:23;25.20;70.00
5466;DHT22;2755;50.728;7.108;2022-09-12T13:08:01;25.20;74.10
5466;DHT22;2755;50.728;7.108;2022-09-12T13:10:28;25.10;71.50
5466;DHT22;2755;50.728;7.108;2022-09-12T13:12:57;23.50;74.10
5466;DHT22;2755;50.728;7.108;2022-09-12T13:18:09;25.00;71.40
5466;DHT22;2755;50.728;7.108;2022-09-12T13:21:28;24.90;71.50
5466;DHT22;2755;50.728;7.108;2022-09-12T13:23:30;24.90;72.70
5466;DHT22;2755;50.728;7.108;2022-09-12T13:25:58;25.00;75.80
5466;DHT22;2755;50.728;7.108;2022-09-12T13:28:27;25.40;74.40
5466;DHT22;2755;50.728;7.108;2022-09-12T13:31:05;25.00;72.90
5466;DHT22;2755;50.728;7.108;2022-09-12T13:33:54;25.20;72.80
5466;DHT22;2755;50.728;7.108;2022-09-12T13:39:38;24.80;73.00
5466;DHT22;2755;50.728;7.108;2022-09-12T13:42:37;25.00;72.40
5466;DHT22;2755;50.728;7.108;2022-09-12T13:45:21;24.90;73.00
5466;DHT22;2755;50.728;7.108;2022-09-12T13:47:56;24.60;78.90
5466;DHT22;2755;50.728;7.108;2022-09-12T13:50:26;25.60;79.80
5466;DHT22;2755;50.728;7.108;2022-09-12T13:52:56;23.60;75.60
5466;DHT22;2755;50.728;7.108;2022-09-12T13:55:44;24.90;73.50
5466;DHT22;2755;50.728;7.108;2022-09-12T13:58:26;24.90;73.80
5466;DHT22;2755;50.728;7.108;2022-09-12T14:03:31;24.90;73.60
5466;DHT22;2755;50.728;7.108;2022-09-12T14:06:16;24.70;75.20
5466;DHT22;2755;50.728;7.108;2022-09-12T14:08:44;25.20;76.70
5466;DHT22;2755;50.728;7.108;2022-09-12T14:11:33;24.90;72.30
5466;DHT22;2755;50.728;7.108;2022-09-12T14:14:05;25.00;76.90
5466;DHT22;2755;50.728;7.108;2022-09-12T14:16:36;24.60;76.00
5466;DHT22;2755;50.728;7.108;2022-09-12T14:19:03;25.00;73.10
5466;DHT22;2755;50.728;7.108;2022-09-12T14:21:33;25.10;71.90
5466;DHT22;2755;50.728;7.108;2022-09-12T14:24:01;25.00;72.80
5466;DHT22;2755;50.728;7.108;2022-09-12T14:26:32;25.20;76.80
5466;DHT22;2755;50.728;7.108;2022-09-12T14:28:59;25.30;75.90
5466;DHT22;2755;50.728;7.108;2022-09-12T14:34:11;25.10;72.50
5466;DHT22;2755;50.728;7.108;2022-09-12T14:41:43;25.10;72.10
5466;DHT22;2755;50.728;7.108;2022-09-12T14:44:21;25.40;71.00
5466;DHT22;2755;50.728;7.108;2022-09-12T14:46:47;25.10;70.50
5466;DHT22;2755;50.728;7.108;2022-09-12T14:49:30;25.10;71.00
5466;DHT22;2755;50.728;7.108;2022-09-12T14:51:59;25.40;72.80
5466;DHT22;2755;50.728;7.108;2022-09-12T14:56:59;23.40;67.10
5466;DHT22;2755;50.728;7.108;2022-09-12T15:04:48;24.80;70.70
5466;DHT22;2755;50.728;7.108;2022-09-12T15:09:54;25.60;71.00
5466;DHT22;2755;50.728;7.108;2022-09-12T15:12:23;25.10;68.50
5466;DHT22;2755;50.728;7.108;2022-09-12T15:19:41;25.00;69.40
5466;DHT22;2755;50.728;7.108;2022-09-12T15:22:11;24.70;70.50
5466;DHT22;2755;50.728;7.108;2022-09-12T15:24:37;24.60;70.40
5466;DHT22;2755;50.728;7.108;2022-09-12T15:27:10;24.90;68.90
5466;DHT22;2755;50.728;7.108;2022-09-12T15:29:37;24.90;68.00
5466;DHT22;2755;50.728;7.108;2022-09-12T15:32:03;23.40;66.90
5466;DHT22;2755;50.728;7.108;2022-09-12T15:34:30;25.40;67.90
5466;DHT22;2755;50.728;7.108;2022-09-12T15:39:22;25.10;69.80
5466;DHT22;2755;50.728;7.108;2022-09-12T15:41:47;25.20;66.40
5466;DHT22;2755;50.728;7.108;2022-09-12T15:44:13;24.50;65.30
5466;DHT22;2755;50.728;7.108;2022-09-12T15:49:05;24.70;67.30
5466;DHT22;2755;50.728;7.108;2022-09-12T15:51:31;24.60;64.60
5466;DHT22;2755;50.728;7.108;2022-09-12T15:53:58;26.10;67.30
5466;DHT22;2755;50.728;7.108;2022-09-12T15:58:50;24.50;64.50
5466;DHT22;2755;50.728;7.108;2022-09-12T16:01:16;24.80;67.20
5466;DHT22;2755;50.728;7.108;2022-09-12T16:03:45;24.60;63.20
5466;DHT22;2755;50.728;7.108;2022-09-12T16:06:11;24.80;67.30
5466;DHT22;2755;50.728;7.108;2022-09-12T16:08:37;24.40;66.90
5466;DHT22;2755;50.728;7.108;2022-09-12T16:11:06;24.40;67.00
5466;DHT22;2755;50.728;7.108;2022-09-12T16:13:32;24.50;64.30
5466;DHT22;2755;50.728;7.108;2022-09-12T16:15:58;24.50;64.10
5466;DHT22;2755;50.728;7.108;2022-09-12T16:18:26;24.30;66.70
5466;DHT22;2755;50.728;7.108;2022-09-12T16:20:53;23.30;63.90
5466;DHT22;2755;50.728;7.108;2022-09-12T16:23:19;24.50;64.30
5466;DHT22;2755;50.728;7.108;2022-09-12T16:30:37;23.00;64.90
5466;DHT22;2755;50.728;7.108;2022-09-12T16:33:02;24.40;63.80
5466;DHT22;2755;50.728;7.108;2022-09-12T16:35:30;24.10;66.30
5466;DHT22;2755;50.728;7.108;2022-09-12T16:37:56;24.00;65.80
5466;DHT22;2755;50.728;7.108;2022-09-12T16:42:47;23.80;64.30
5466;DHT22;2755;50.728;7.108;2022-09-12T16:47:39;24.00;67.70
5466;DHT22;2755;50.728;7.108;2022-09-12T16:50:05;22.80;63.40
5466;DHT22;2755;50.728;7.108;2022-09-12T16:52:33;23.90;66.70
5466;DHT22;2755;50.728;7.108;2022-09-12T16:54:59;24.40;65.20
5466;DHT22;2755;50.728;7.108;2022-09-12T16:59:50;24.70;68.00
5466;DHT22;2755;50.728;7.108;2022-09-12T17:04:42;24.20;68.50
5466;DHT22;2755;50.728;7.108;2022-09-12T17:09:34;23.70;68.60
5466;DHT22;2755;50.728;7.108;2022-09-12T17:12:00;24.20;68.50
5466;DHT22;2755;50.728;7.108;2022-09-12T17:14:25;24.10;67.60
5466;DHT22;2755;50.728;7.108;2022-09-12T17:16:51;23.60;69.40
5466;DHT22;2755;50.728;7.108;2022-09-12T17:19:20;23.60;66.00
5466;DHT22;2755;50.728;7.108;2022-09-12T17:21:46;23.50;70.10
5466;DHT22;2755;50.728;7.108;2022-09-12T17:24:15;23.20;67.80
5466;DHT22;2755;50.728;7.108;2022-09-12T17:26:41;23.50;69.20
5466;DHT22;2755;50.728;7.108;2022-09-12T17:29:06;23.00;71.70
5466;DHT22;2755;50.728;7.108;2022-09-12T17:31:32;21.90;70.50
5466;DHT22;2755;50.728;7.108;2022-09-12T17:33:59;23.50;70.00
5466;DHT22;2755;50.728;7.108;2022-09-12T17:36:25;23.00;73.10
5466;DHT22;2755;50.728;7.108;2022-09-12T17:38:51;23.00;71.10
5466;DHT22;2755;50.728;7.108;2022-09-12T17:43:51;22.60;72.30
5466;DHT22;2755;50.728;7.108;2022-09-12T17:46:17;22.90;73.60
5466;DHT22;2755;50.728;7.108;2022-09-12T17:48:43;21.30;72.80
5466;DHT22;2755;50.728;7.108;2022-09-12T17:53:36;22.30;78.50
5466;DHT22;2755;50.728;7.108;2022-09-12T17:56:06;21.70;75.50
5466;DHT22;2755;50.728;7.108;2022-09-12T17:58:32;21.60;76.90
5466;DHT22;2755;50.728;7.108;2022-09-12T18:01:03;21.80;79.40
5466;DHT22;2755;50.728;7.108;2022-09-12T18:06:13;21.20;78.20
5466;DHT22;2755;50.728;7.108;2022-09-12T18:08:39;21.50;82.20
5466;DHT22;2755;50.728;7.108;2022-09-12T18:11:06;21.30;79.30
5466;DHT22;2755;50.728;7.108;2022-09-12T18:13:32;20.70;82.60
5466;DHT22;2755;50.728;7.108;2022-09-12T18:16:02;21.20;83.30
5466;DHT22;2755;50.728;7.108;2022-09-12T18:18:28;21.00;80.40
5466;DHT22;2755;50.728;7.108;2022-09-12T18:20:54;20.90;81.10
5466;DHT22;2755;50.728;7.108;2022-09-12T18:23:19;21.30;82.00
5466;DHT22;2755;50.728;7.108;2022-09-12T18:28:11;20.40;83.80
5466;DHT22;2755;50.728;7.108;2022-09-12T18:30:37;20.70;81.60
5466;DHT22;2755;50.728;7.108;2022-09-12T18:33:02;20.80;82.30
5466;DHT22;2755;50.728;7.108;2022-09-12T18:35:28;20.60;82.90
5466;DHT22;2755;50.728;7.108;2022-09-12T18:37:53;20.30;83.00
5466;DHT22;2755;50.728;7.108;2022-09-12T18:42:45;20.60;85.00
5466;DHT22;2755;50.728;7.108;2022-09-12T18:45:11;21.10;85.80
5466;DHT22;2755;50.728;7.108;2022-09-12T18:47:37;20.70;86.80
5466;DHT22;2755;50.728;7.108;2022-09-12T18:52:28;20.70;89.90
5466;DHT22;2755;50.728;7.108;2022-09-12T18:57:20;20.50;88.40
5466;DHT22;2755;50.728;7.108;2022-09-12T18:59:45;20.20;90.80
5466;DHT22;2755;50.728;7.108;2022-09-12T19:02:14;20.80;90.30
5466;DHT22;2755;50.728;7.108;2022-09-12T19:04:40;20.30;91.60
5466;DHT22;2755;50.728;7.108;2022-09-12T19:07:06;20.00;90.50
5466;DHT22;2755;50.728;7.108;2022-09-12T19:09:31;20.30;91.30
5466;DHT22;2755;50.728;7.108;2022-09-12T19:11:58;20.10;92.50
5466;DHT22;2755;50.728;7.108;2022-09-12T19:14:26;20.20;91.40
5466;DHT22;2755;50.728;7.108;2022-09-12T19:16:52;20.20;93.50
5466;DHT22;2755;50.728;7.108;2022-09-12T19:19:18;19.50;93.60
5466;DHT22;2755;50.728;7.108;2022-09-12T19:21:44;19.90;93.90
5466;DHT22;2755;50.728;7.108;2022-09-12T19:24:10;20.30;94.40
5466;DHT22;2755;50.728;7.108;2022-09-12T19:26:37;19.80;94.50
5466;DHT22;2755;50.728;7.108;2022-09-12T19:31:30;19.80;94.80
5466;DHT22;2755;50.728;7.108;2022-09-12T19:34:03;19.40;94.80
5466;DHT22;2755;50.728;7.108;2022-09-12T19:36:30;19.50;94.60
5466;DHT22;2755;50.728;7.108;2022-09-12T19:41:22;19.90;95.00
5466;DHT22;2755;50.728;7.108;2022-09-12T19:43:48;18.80;94.80
5466;DHT22;2755;50.728;7.108;2022-09-12T19:46:19;19.90;95.70
5466;DHT22;2755;50.728;7.108;2022-09-12T19:48:45;19.60;96.70
5466;DHT22;2755;50.728;7.108;2022-09-12T19:51:11;19.30;97.80
5466;DHT22;2755;50.728;7.108;2022-09-12T19:53:36;19.40;98.20
5466;DHT22;2755;50.728;7.108;2022-09-12T19:56:06;19.10;97.80
5466;DHT22;2755;50.728;7.108;2022-09-12T20:01:15;19.40;97.20
5466;DHT22;2755;50.728;7.108;2022-09-12T20:03:41;19.30;97.80
5466;DHT22;2755;50.728;7.108;2022-09-12T20:06:10;19.40;97.60
5466;DHT22;2755;50.728;7.108;2022-09-12T20:08:36;18.50;97.60
5466;DHT22;2755;50.728;7.108;2022-09-12T20:11:05;19.30;98.30
5466;DHT22;2755;50.728;7.108;2022-09-12T20:13:30;19.20;98.60
5466;DHT22;2755;50.728;7.108;2022-09-12T20:16:03;18.00;99.20
5466;DHT22;2755;50.728;7.108;2022-09-12T20:18:29;19.60;99.90
5466;DHT22;2755;50.728;7.108;2022-09-12T20:20:55;19.80;99.90
5466;DHT22;2755;50.728;7.108;2022-09-12T20:23:22;19.20;99.90
5466;DHT22;2755;50.728;7.108;2022-09-12T20:25:47;19.50;99.90
5466;DHT22;2755;50.728;7.108;2022-09-12T20:28:13;19.00;99.70